Time;durP1;ratioP1;P1;durP2;ratioP2;P2;SDS_P1;SDS_P2;PMS_P1;PMS_P2;Temp;Humidity;BMP_temperature;BMP_pressure;BME280_temperature;BME280_humidity;BME280_pressure;Samples;Min_cycle;Max_cycle;Signal;HPM_P1;HPM_P2
2022/07/27 00:01:58;;;;;;;;;2.50;2.50;;;;;20.79;84.76;101631.31;5115998;27;45381;-86
2022/07/27 00:04:24;;;;;;;;;2.00;2.00;;;;;20.73;85.02;101622.44;5116379;27;45597;-86
2022/07/27 00:06:49;;;;;;;;;2.75;2.75;;;;;20.73;85.72;101622.44;5099069;27;45352;-86
2022/07/27 00:09:17;;;;;;;;;3.00;2.00;;;;;20.69;85.46;101619.72;5118182;27;45567;-85
2022/07/27 00:11:42;;;;;;;;;3.00;3.00;;;;;20.63;86.01;101615.25;5117474;27;46225;-86
2022/07/27 00:14:08;;;;;;;;;3.00;3.00;;;;;20.65;85.82;101624.06;5117169;27;45346;-86
2022/07/27 00:16:34;;;;;;;;;2.25;2.00;;;;;20.63;87.75;101625.78;5122135;27;45316;-86
2022/07/27 00:18:59;;;;;;;;;3.25;2.25;;;;;20.57;88.30;101621.31;5122252;27;45517;-86
2022/07/27 00:21:25;;;;;;;;;2.25;2.00;;;;;20.53;87.77;101618.59;5121446;27;45510;-86
2022/07/27 00:23:52;;;;;;;;;2.25;2.25;;;;;20.50;88.32;101614.19;5137196;27;45645;-86
2022/07/27 00:26:17;;;;;;;;;2.25;2.25;;;;;20.48;88.81;101617.63;5142223;27;45218;-86
2022/07/27 00:28:43;;;;;;;;;2.00;2.00;;;;;20.51;89.22;101620.31;5142560;27;45303;-86
2022/07/27 00:31:08;;;;;;;;;3.25;2.00;;;;;20.53;88.80;101621.22;5132577;27;45282;-85
2022/07/27 00:33:34;;;;;;;;;2.00;2.00;;;;;20.48;89.20;101625.50;5121161;27;45271;-86
2022/07/27 00:36:01;;;;;;;;;5.50;2.25;;;;;20.49;89.09;101622.03;5120794;27;45352;-86
2022/07/27 00:38:27;;;;;;;;;2.00;2.00;;;;;20.49;89.26;101622.03;5102512;27;45579;-86
2022/07/27 00:40:53;;;;;;;;;2.00;2.00;;;;;20.46;89.53;101614.09;5101722;27;47465;-85
2022/07/27 00:43:18;;;;;;;;;2.00;1.50;;;;;20.45;89.75;101620.22;5138490;27;45344;-85
2022/07/27 00:45:44;;;;;;;;;4.25;2.00;;;;;20.40;89.72;101615.75;5142006;27;45450;-86
2022/07/27 00:48:10;;;;;;;;;5.00;1.50;;;;;20.38;90.38;101617.47;5142097;27;45308;-86
2022/07/27 00:50:40;;;;;;;;;2.00;2.00;;;;;20.36;90.65;101606.03;5130865;27;45907;-86
2022/07/27 00:53:07;;;;;;;;;3.00;2.50;;;;;20.38;90.97;101627.13;5120618;27;45609;-86
2022/07/27 00:55:33;;;;;;;;;2.00;2.00;;;;;20.34;91.01;101615.66;5102454;27;45320;-86
2022/07/27 00:58:00;;;;;;;;;2.25;2.00;;;;;20.35;90.13;101611.28;5120747;27;45308;-86
2022/07/27 01:00:28;;;;;;;;;3.50;1.25;;;;;20.29;91.06;101614.69;5120290;27;46066;-86
2022/07/27 01:02:54;;;;;;;;;3.00;3.00;;;;;20.25;90.90;101621.63;5120164;27;45306;-86
2022/07/27 01:05:19;;;;;;;;;2.00;2.00;;;;;20.23;92.68;101618.09;5120718;27;45416;-85
2022/07/27 01:07:45;;;;;;;;;3.00;2.00;;;;;20.19;92.28;101612.75;5121009;27;45405;-86
2022/07/27 01:10:11;;;;;;;;;2.75;2.75;;;;;20.13;92.73;101615.28;5120054;27;45758;-86
2022/07/27 01:12:37;;;;;;;;;1.00;1.00;;;;;20.13;92.76;101602.13;5120495;27;45353;-86
2022/07/27 01:15:03;;;;;;;;;3.50;3.00;;;;;20.13;93.15;101604.78;5121375;27;45354;-86
2022/07/27 01:17:32;;;;;;;;;2.00;2.00;;;;;20.11;93.19;101602.09;5103561;27;45582;-86
2022/07/27 01:19:58;;;;;;;;;3.00;3.00;;;;;20.12;93.91;101603.00;5121492;27;45380;-86
2022/07/27 01:22:24;;;;;;;;;4.00;3.00;;;;;20.09;94.38;101601.16;5139228;27;45235;-86
2022/07/27 01:24:50;;;;;;;;;2.00;2.00;;;;;20.02;95.14;101600.22;5141027;27;45373;-86
2022/07/27 01:27:15;;;;;;;;;3.25;3.00;;;;;19.99;95.18;101599.22;5141632;27;45321;-85
2022/07/27 01:29:41;;;;;;;;;4.75;2.50;;;;;19.95;95.53;101595.66;5120935;27;47511;-86
2022/07/27 01:32:07;;;;;;;;;3.00;3.00;;;;;19.89;95.70;101588.56;5140624;27;45272;-86
2022/07/27 01:34:33;;;;;;;;;2.00;2.00;;;;;19.91;95.18;101592.09;5139853;27;45466;-86
2022/07/27 01:37:00;;;;;;;;;4.25;3.25;;;;;19.89;95.43;101580.66;5124085;27;45534;-87
2022/07/27 01:39:26;;;;;;;;;3.25;2.25;;;;;19.88;96.15;101586.78;5142305;27;46175;-86
2022/07/27 01:41:52;;;;;;;;;3.50;3.00;;;;;19.86;97.23;101588.53;5123190;27;45403;-87
2022/07/27 01:44:17;;;;;;;;;3.00;3.00;;;;;19.85;97.02;101591.06;5141165;27;45282;-86
2022/07/27 01:46:43;;;;;;;;;3.00;3.00;;;;;19.86;96.66;101587.63;5140933;27;45513;-86
2022/07/27 01:49:08;;;;;;;;;3.00;3.00;;;;;19.86;96.84;101587.63;5139808;27;45827;-86
2022/07/27 01:51:34;;;;;;;;;2.00;2.00;;;;;19.88;96.75;101586.78;5122432;27;45486;-86
2022/07/27 01:54:00;;;;;;;;;2.50;2.00;;;;;19.86;97.23;101583.25;5121163;27;45350;-87
2022/07/27 01:56:25;;;;;;;;;3.75;2.00;;;;;19.85;97.54;101584.09;5121150;27;45378;-85
2022/07/27 01:58:51;;;;;;;;;3.50;2.00;;;;;19.86;97.32;101585.91;5119303;27;46098;-86
2022/07/27 02:01:17;;;;;;;;;3.00;2.00;;;;;19.82;97.93;101575.22;5119870;27;45267;-86
2022/07/27 02:03:42;;;;;;;;;5.25;3.00;;;;;19.84;99.56;101584.94;5120425;27;45317;-86
2022/07/27 02:06:08;;;;;;;;;3.50;3.50;;;;;19.85;98.93;101585.81;5120868;27;45310;-86
2022/07/27 02:08:34;;;;;;;;;3.00;3.00;;;;;19.86;99.27;101580.63;5119976;27;45491;-86
2022/07/27 02:13:46;;;;;;;;;2.00;2.00;;;;;19.84;98.74;101577.06;5120249;27;45798;-86
2022/07/27 02:16:16;;;;;;;;;2.25;2.00;;;;;19.82;99.27;101583.13;5120385;27;45598;-87
2022/07/27 02:18:42;;;;;;;;;2.50;2.50;;;;;19.77;98.41;101575.16;5120641;27;46379;-87
2022/07/27 02:21:09;;;;;;;;;2.00;2.00;;;;;19.76;98.81;101582.16;5119261;27;45454;-87
2022/07/27 02:23:36;;;;;;;;;1.75;1.75;;;;;19.72;99.80;101580.31;5124062;27;45416;-87
2022/07/27 02:26:03;;;;;;;;;2.00;2.00;;;;;19.74;99.46;101578.59;5126705;27;45153;-87
2022/07/27 02:28:29;;;;;;;;;5.75;2.25;;;;;19.75;100.00;101582.13;5107914;27;46908;-86
2022/07/27 02:30:54;;;;;;;;;4.00;3.00;;;;;19.71;99.44;101583.78;5126546;27;45388;-86
2022/07/27 02:33:20;;;;;;;;;4.50;2.50;;;;;19.74;99.61;101585.63;5128132;27;45216;-86
2022/07/27 02:35:45;;;;;;;;;3.00;3.00;;;;;19.71;99.90;101577.66;5128274;27;45406;-87
2022/07/27 02:38:11;;;;;;;;;2.25;2.25;;;;;19.68;100.00;101589.00;5127150;27;45392;-87
2022/07/27 02:40:37;;;;;;;;;2.00;1.50;;;;;19.68;99.66;101588.09;5107961;27;45275;-86
2022/07/27 02:43:02;;;;;;;;;3.00;3.00;;;;;19.66;100.00;101593.34;5124928;27;45348;-88
2022/07/27 02:45:28;;;;;;;;;3.00;2.75;;;;;19.63;99.42;101590.66;5104063;27;45607;-87
2022/07/27 02:47:53;;;;;;;;;4.00;1.00;;;;;19.61;99.99;101585.38;5121492;27;45627;-86
2022/07/27 02:50:19;;;;;;;;;3.00;2.75;;;;;19.57;100.00;101586.16;5123151;27;45286;-87
2022/07/27 02:52:45;;;;;;;;;1.75;1.25;;;;;19.55;100.00;101593.13;5123303;27;45241;-87
2022/07/27 02:55:11;;;;;;;;;2.00;2.00;;;;;19.55;100.00;101584.38;5122444;27;45224;-87
2022/07/27 02:57:39;;;;;;;;;3.50;3.00;;;;;19.55;100.00;101584.38;5124439;27;46099;-86
2022/07/27 03:00:08;;;;;;;;;2.50;2.00;;;;;19.51;100.00;101577.25;5127646;27;45451;-86
2022/07/27 03:02:34;;;;;;;;;2.50;2.00;;;;;19.54;99.13;101574.72;5128370;27;45321;-85
2022/07/27 03:04:59;;;;;;;;;4.25;2.00;;;;;19.49;99.35;101577.25;5129825;27;45326;-86
2022/07/27 03:07:25;;;;;;;;;2.00;2.00;;;;;19.48;99.29;101571.13;5122800;27;45945;-86
2022/07/27 03:09:50;;;;;;;;;2.00;2.00;;;;;19.46;98.82;101580.72;5120993;27;45357;-86
2022/07/27 03:12:16;;;;;;;;;2.50;2.50;;;;;19.46;98.57;101575.44;5120102;27;45254;-86
2022/07/27 03:14:42;;;;;;;;;5.00;3.25;;;;;19.46;99.55;101578.06;5120589;27;45608;-85
2022/07/27 03:17:07;;;;;;;;;3.00;3.00;;;;;19.46;99.10;101577.16;5137680;27;45499;-86
2022/07/27 03:19:33;;;;;;;;;2.00;1.75;;;;;19.43;98.74;101572.75;5140087;27;45344;-87
2022/07/27 03:21:58;;;;;;;;;4.00;2.00;;;;;19.40;98.50;101559.56;5139949;27;45234;-85
2022/07/27 03:24:24;;;;;;;;;4.50;2.75;;;;;19.42;99.06;101573.59;5121859;27;45621;-85
2022/07/27 03:26:49;;;;;;;;;2.75;1.75;;;;;19.36;98.71;101560.38;5140231;27;45330;-85
2022/07/27 03:29:15;;;;;;;;;2.00;2.00;;;;;19.36;100.00;101576.13;5139993;27;45370;-86
2022/07/27 03:31:41;;;;;;;;;2.00;2.00;;;;;19.31;99.67;101573.41;5139462;27;45287;-86
2022/07/27 03:34:06;;;;;;;;;4.25;2.00;;;;;19.32;100.00;101564.66;5139186;27;45316;-86
2022/07/27 03:36:32;;;;;;;;;0.00;0.00;;;;;19.33;99.59;101581.28;5138942;27;46208;-86
2022/07/27 03:38:57;;;;;;;;;4.00;3.25;;;;;19.31;99.49;101572.50;5139118;27;45396;-86
2022/07/27 03:41:23;;;;;;;;;1.50;1.00;;;;;19.33;99.31;101576.03;5141373;27;45439;-87
2022/07/27 03:43:48;;;;;;;;;3.50;2.75;;;;;19.32;98.58;101580.44;5142241;27;45334;-86
2022/07/27 03:46:14;;;;;;;;;3.50;2.00;;;;;19.34;98.37;101583.06;5140319;27;45849;-86
2022/07/27 03:48:40;;;;;;;;;5.25;2.75;;;;;19.33;97.81;101583.91;5139954;27;45238;-86
2022/07/27 03:51:05;;;;;;;;;3.00;2.75;;;;;19.29;97.65;101568.94;5133977;27;45464;-86
2022/07/27 03:53:31;;;;;;;;;3.00;1.75;;;;;19.28;97.88;101575.06;5121229;27;45661;-86
2022/07/27 03:55:57;;;;;;;;;2.00;2.00;;;;;19.27;97.43;101570.69;5119962;27;46184;-85
2022/07/27 03:58:23;;;;;;;;;2.00;2.00;;;;;19.27;97.59;101579.44;5111490;27;45356;-85
2022/07/27 04:00:49;;;;;;;;;4.00;2.25;;;;;19.25;96.74;101580.25;5139037;27;45367;-86
2022/07/27 04:03:16;;;;;;;;;2.00;2.00;;;;;19.23;96.56;101569.69;5125868;27;45293;-85
2022/07/27 04:05:41;;;;;;;;;1.75;1.75;;;;;19.27;96.76;101583.81;5136992;27;45550;-85
2022/07/27 04:08:07;;;;;;;;;3.75;2.00;;;;;19.25;96.75;101570.63;5117357;27;45338;-85
2022/07/27 04:10:32;;;;;;;;;2.00;2.00;;;;;19.23;95.83;101572.31;5099155;27;45377;-85
2022/07/27 04:12:58;;;;;;;;;3.75;2.50;;;;;19.25;96.13;101577.63;5099085;27;45305;-86
2022/07/27 04:15:24;;;;;;;;;4.25;2.00;;;;;19.18;96.00;101577.47;5136483;27;46102;-85
2022/07/27 04:17:50;;;;;;;;;1.00;1.00;;;;;19.19;95.60;101581.00;5138619;27;45368;-86
2022/07/27 04:20:15;;;;;;;;;3.50;2.00;;;;;19.21;95.18;101573.16;5139429;27;45365;-84
2022/07/27 04:22:41;;;;;;;;;3.00;3.00;;;;;19.20;94.94;101572.28;5130095;27;45322;-85
2022/07/27 04:25:07;;;;;;;;;3.25;3.25;;;;;19.20;93.48;101568.75;5117174;27;45693;-85
2022/07/27 04:27:32;;;;;;;;;2.00;1.75;;;;;19.25;93.31;101578.50;5108651;27;45471;-85
2022/07/27 04:29:58;;;;;;;;;2.00;2.00;;;;;19.27;92.39;101575.94;5138028;27;45334;-85
2022/07/27 04:32:23;;;;;;;;;3.00;2.00;;;;;19.28;92.45;101575.06;5138530;27;45336;-85
2022/07/27 04:34:49;;;;;;;;;2.25;2.25;;;;;19.31;91.98;101578.66;5117153;27;45572;-85
2022/07/27 04:37:15;;;;;;;;;3.25;3.00;;;;;19.36;91.42;101572.59;5132999;27;45354;-85
2022/07/27 04:39:41;;;;;;;;;4.00;3.25;;;;;19.38;89.80;101579.66;5137312;27;45293;-85
2022/07/27 04:42:07;;;;;;;;;3.00;3.00;;;;;19.39;88.73;101576.16;5135777;27;45526;-85
2022/07/27 04:44:33;;;;;;;;;3.00;3.00;;;;;19.40;88.94;101582.31;5135456;27;45499;-86
2022/07/27 04:46:58;;;;;;;;;3.75;3.00;;;;;19.43;87.95;101577.13;5138635;27;45324;-85
2022/07/27 04:49:24;;;;;;;;;5.25;2.00;;;;;19.47;87.30;101573.69;5138376;27;45384;-85
2022/07/27 04:51:50;;;;;;;;;2.00;1.50;;;;;19.46;86.81;101574.56;5138369;27;45843;-86
2022/07/27 04:54:16;;;;;;;;;2.75;2.00;;;;;19.46;86.94;101578.06;5137991;27;45629;-85
2022/07/27 04:56:41;;;;;;;;;1.50;1.00;;;;;19.46;86.06;101575.44;5120887;27;45471;-86
2022/07/27 04:59:07;;;;;;;;;2.75;2.00;;;;;19.48;85.92;101576.38;5121751;27;45238;-84
2022/07/27 05:01:33;;;;;;;;;3.25;1.25;;;;;19.44;85.28;101574.53;5125426;27;45578;-85
2022/07/27 05:03:58;;;;;;;;;2.25;2.25;;;;;19.38;85.78;101569.16;5137527;27;45511;-85
2022/07/27 05:06:24;;;;;;;;;3.00;2.00;;;;;19.39;85.70;101573.53;5123672;27;45294;-86
2022/07/27 05:08:50;;;;;;;;;2.00;2.00;;;;;19.37;84.92;101572.63;5131877;27;45427;-86
2022/07/27 05:11:15;;;;;;;;;4.00;2.75;;;;;19.37;85.54;101582.25;5117212;27;45325;-85
2022/07/27 05:13:41;;;;;;;;;2.50;1.50;;;;;19.33;85.10;101576.91;5141955;27;45377;-86
2022/07/27 05:16:10;;;;;;;;;3.50;2.75;;;;;19.32;85.32;101588.31;5142117;27;45300;-85
2022/07/27 05:18:39;;;;;;;;;3.25;3.00;;;;;19.31;84.99;101588.25;5121061;27;45235;-86
2022/07/27 05:21:06;;;;;;;;;1.50;1.50;;;;;19.29;84.57;101585.59;5120440;27;45559;-86
2022/07/27 05:23:32;;;;;;;;;2.25;1.75;;;;;19.34;84.81;101590.94;5120379;27;45556;-86
2022/07/27 05:25:58;;;;;;;;;3.00;2.00;;;;;19.31;84.81;101594.41;5120227;27;45646;-86
2022/07/27 05:28:23;;;;;;;;;4.00;3.00;;;;;19.33;84.84;101587.41;5102261;27;45492;-86
2022/07/27 05:30:49;;;;;;;;;4.00;3.00;;;;;19.36;84.82;101598.84;5126852;27;45561;-86
2022/07/27 05:33:15;;;;;;;;;3.75;2.25;;;;;19.38;84.33;101598.06;5109266;27;47949;-86
2022/07/27 05:35:40;;;;;;;;;4.00;2.00;;;;;19.38;84.08;101599.78;5135518;27;46034;-86
2022/07/27 05:38:06;;;;;;;;;3.75;3.00;;;;;19.38;84.27;101602.41;5147900;27;45239;-86
2022/07/27 05:40:32;;;;;;;;;2.50;1.00;;;;;19.38;83.98;101603.31;5144988;27;45501;-85
2022/07/27 05:42:58;;;;;;;;;4.75;3.00;;;;;19.37;84.27;101600.63;5104729;27;47320;-87
2022/07/27 05:45:24;;;;;;;;;4.00;2.00;;;;;19.39;84.61;101605.03;5128893;27;45180;-86
2022/07/27 05:47:51;;;;;;;;;3.00;2.00;;;;;19.40;84.23;101604.19;5118193;27;45347;-86
2022/07/27 05:50:16;;;;;;;;;3.25;2.00;;;;;19.42;84.52;101604.25;5110333;27;45408;-86
2022/07/27 05:52:43;;;;;;;;;2.75;2.75;;;;;19.48;84.49;101604.38;5142731;27;45300;-85
2022/07/27 05:55:09;;;;;;;;;2.75;2.50;;;;;19.51;83.17;101608.78;5125227;27;45301;-85
2022/07/27 05:57:36;;;;;;;;;4.00;2.00;;;;;19.50;82.77;101607.91;5119439;27;45905;-86
2022/07/27 06:00:04;;;;;;;;;2.00;2.00;;;;;19.51;83.03;101612.31;5129320;27;45534;-85
2022/07/27 06:02:31;;;;;;;;;6.75;4.00;;;;;19.51;83.15;101612.31;5112725;27;47214;-85
2022/07/27 06:04:56;;;;;;;;;3.75;2.50;;;;;19.51;82.87;101611.41;5129372;27;45435;-85
2022/07/27 06:10:08;;;;;;;;;3.75;2.50;;;;;19.48;82.94;101609.63;5130644;27;45401;-86
2022/07/27 06:12:41;;;;;;;;;5.75;2.50;;;;;19.48;82.81;101605.25;5127207;27;45407;-84
2022/07/27 06:15:09;;;;;;;;;9.00;7.00;;;;;19.46;83.59;101609.59;5127989;27;46140;-86
2022/07/27 06:17:35;;;;;;;;;4.50;3.00;;;;;19.46;83.29;101613.94;5134774;27;45903;-84
2022/07/27 06:20:02;;;;;;;;;2.50;2.00;;;;;19.49;83.15;101620.13;5111833;27;45517;-84
2022/07/27 06:22:28;;;;;;;;;5.00;2.75;;;;;19.51;83.10;101614.03;5140428;27;46455;-79
2022/07/27 06:24:53;;;;;;;;;6.50;2.00;;;;;19.53;83.41;101617.59;5141175;27;45214;-85
2022/07/27 06:27:19;;;;;;;;;2.25;2.25;;;;;19.54;83.58;101617.63;5118745;27;45356;-82
2022/07/27 06:29:44;;;;;;;;;7.00;2.50;;;;;19.58;83.35;101613.34;5127080;27;45492;-88
2022/07/27 06:32:10;;;;;;;;;4.00;4.00;;;;;19.58;83.08;101605.44;5098843;27;46944;-82
2022/07/27 06:34:37;;;;;;;;;4.00;4.00;;;;;19.59;82.71;101602.84;5125726;27;45522;-86
2022/07/27 06:37:03;;;;;;;;;4.75;3.50;;;;;19.61;82.56;101613.38;5121240;27;45316;-84
2022/07/27 06:39:28;;;;;;;;;4.00;4.00;;;;;19.62;82.78;101610.78;5130811;27;45456;-81
2022/07/27 06:41:55;;;;;;;;;3.00;2.25;;;;;19.63;82.97;101617.81;5122091;27;45955;-85
2022/07/27 06:44:20;;;;;;;;;4.25;3.25;;;;;19.64;83.36;101614.34;5124387;27;45844;-86
2022/07/27 06:46:46;;;;;;;;;4.00;2.75;;;;;19.63;82.73;101612.56;5140796;27;45234;-84
2022/07/27 06:49:12;;;;;;;;;3.75;3.00;;;;;19.70;83.24;101628.44;5121705;27;45355;-81
2022/07/27 06:51:41;;;;;;;;;4.50;3.00;;;;;19.67;82.60;101610.88;5141627;27;45246;-85
2022/07/27 06:54:06;;;;;;;;;3.50;3.00;;;;;19.73;82.92;101613.63;5119751;27;45685;-85
2022/07/27 06:56:32;;;;;;;;;5.25;4.00;;;;;19.76;82.62;101620.69;5120216;27;45293;-87
2022/07/27 06:58:58;;;;;;;;;2.75;2.75;;;;;19.76;83.18;101621.56;5124965;27;45530;-81
2022/07/27 07:01:24;;;;;;;;;4.25;2.25;;;;;19.83;82.70;101626.94;5135476;27;45915;-84
2022/07/27 07:03:49;;;;;;;;;3.00;3.00;;;;;19.84;82.90;101628.72;5132381;27;45965;-83
2022/07/27 07:06:15;;;;;;;;;3.75;3.00;;;;;19.86;82.26;101633.19;5141415;27;45361;-85
2022/07/27 07:08:41;;;;;;;;;4.75;3.00;;;;;19.89;82.16;101629.72;5134616;27;45436;-83
2022/07/27 07:11:08;;;;;;;;;3.00;3.00;;;;;19.92;81.88;101633.31;5119906;27;46877;-83
2022/07/27 07:13:34;;;;;;;;;2.75;2.50;;;;;19.89;82.13;101622.72;5133022;27;45266;-85
2022/07/27 07:15:59;;;;;;;;;5.00;4.50;;;;;19.97;81.84;101637.78;5139350;27;45289;-82
2022/07/27 07:18:25;;;;;;;;;5.00;4.00;;;;;20.00;81.94;101638.72;5120092;27;45524;-84
2022/07/27 07:20:51;;;;;;;;;3.75;3.50;;;;;20.02;82.65;101633.47;5119262;27;45582;-82
2022/07/27 07:23:17;;;;;;;;;3.25;3.00;;;;;20.08;81.69;101634.47;5119917;27;45370;-85
2022/07/27 07:25:43;;;;;;;;;4.00;3.00;;;;;20.13;82.10;101637.19;5130132;27;45473;-87
2022/07/27 07:28:10;;;;;;;;;3.00;3.00;;;;;20.16;81.96;101639.88;5138423;27;45663;-83
2022/07/27 07:30:35;;;;;;;;;4.00;3.00;;;;;20.20;81.38;101635.56;5121612;27;45415;-83
2022/07/27 07:33:01;;;;;;;;;3.75;3.00;;;;;20.26;81.24;101635.66;5128358;27;45241;-83
2022/07/27 07:35:27;;;;;;;;;3.25;3.00;;;;;20.28;81.49;101639.22;5141643;27;45352;-84
2022/07/27 07:37:53;;;;;;;;;4.75;4.00;;;;;20.33;81.25;101639.28;5142192;27;45542;-83
2022/07/27 07:40:19;;;;;;;;;5.50;4.25;;;;;20.35;81.51;101640.22;5124038;27;47577;-84
2022/07/27 07:42:56;;;;;;;;;5.75;3.00;;;;;20.37;81.15;101641.13;5145189;27;45283;-84
2022/07/27 07:45:23;;;;;;;;;4.00;4.00;;;;;20.38;80.83;101633.25;5143936;27;45329;-81
2022/07/27 07:47:50;;;;;;;;;4.00;4.00;;;;;20.41;80.86;101642.94;5149949;27;45684;-82
2022/07/27 07:50:16;;;;;;;;;5.50;4.25;;;;;20.42;80.79;101642.06;5129524;27;45468;-82
2022/07/27 07:52:42;;;;;;;;;5.50;3.75;;;;;20.43;80.62;101638.59;5130761;27;45702;-79
2022/07/27 07:55:08;;;;;;;;;5.50;3.50;;;;;20.40;81.20;101634.16;5139826;27;45252;-80
2022/07/27 07:57:34;;;;;;;;;6.25;4.50;;;;;20.40;81.52;101628.91;5120337;27;45552;-81
2022/07/27 08:00:00;;;;;;;;;6.00;4.75;;;;;20.40;81.78;101631.53;5115862;27;45393;-81
2022/07/27 08:02:25;;;;;;;;;7.00;4.00;;;;;20.42;81.65;101634.19;5099359;27;45380;-82
2022/07/27 08:04:51;;;;;;;;;7.00;4.00;;;;;20.47;82.12;101632.53;5118001;27;45315;-84
2022/07/27 08:07:16;;;;;;;;;5.50;4.00;;;;;20.52;81.05;101635.25;5119299;27;45391;-80
2022/07/27 08:09:43;;;;;;;;;5.50;4.00;;;;;20.51;81.11;101637.00;5118643;27;45929;-82
2022/07/27 08:12:08;;;;;;;;;5.00;3.75;;;;;20.50;81.80;101632.59;5118660;27;45708;-83
2022/07/27 08:14:34;;;;;;;;;7.00;5.00;;;;;20.52;81.34;101632.59;5118511;27;45296;-83
2022/07/27 08:17:00;;;;;;;;;4.50;4.50;;;;;20.55;80.91;101624.78;5122807;27;45580;-82
2022/07/27 08:19:26;;;;;;;;;4.00;4.00;;;;;20.59;80.83;101620.44;5124842;27;46098;-82
2022/07/27 08:21:51;;;;;;;;;6.00;4.00;;;;;20.57;81.13;101623.94;5122779;27;45310;-81
2022/07/27 08:24:17;;;;;;;;;6.00;5.00;;;;;20.63;81.05;101617.88;5123428;27;45338;-82
2022/07/27 08:26:43;;;;;;;;;6.50;4.50;;;;;20.66;80.74;101620.56;5104908;27;45345;-82
2022/07/27 08:29:08;;;;;;;;;7.00;6.00;;;;;20.67;81.01;101622.34;5122168;27;45725;-81
2022/07/27 08:31:34;;;;;;;;;5.75;5.75;;;;;20.72;80.91;101615.41;5123743;27;45707;-82
2022/07/27 08:34:00;;;;;;;;;6.00;4.25;;;;;20.77;80.29;101623.41;5123877;27;45169;-84
2022/07/27 08:36:27;;;;;;;;;3.25;3.25;;;;;20.81;79.62;101624.31;5104862;27;45342;-81
2022/07/27 08:38:52;;;;;;;;;5.25;5.25;;;;;20.82;79.79;101624.38;5123157;27;45389;-81
2022/07/27 08:41:21;;;;;;;;;5.25;4.00;;;;;20.86;79.94;101615.63;5104574;27;45362;-82
2022/07/27 08:43:47;;;;;;;;;4.00;3.00;;;;;20.86;80.01;101612.13;5123709;27;45306;-87
2022/07/27 08:46:16;;;;;;;;;7.00;6.00;;;;;20.91;79.34;101614.84;5130463;27;45350;-80
2022/07/27 08:48:43;;;;;;;;;7.50;6.50;;;;;20.95;79.12;101620.16;5128557;27;45689;-85
2022/07/27 08:51:10;;;;;;;;;3.50;3.50;;;;;20.98;78.80;101616.69;5124824;27;45247;-83
2022/07/27 08:53:36;;;;;;;;;6.00;6.00;;;;;21.01;78.37;101608.84;5122248;27;45172;-82
2022/07/27 08:56:01;;;;;;;;;5.00;5.00;;;;;21.07;77.88;101613.31;5121943;27;45612;-83
2022/07/27 08:58:27;;;;;;;;;6.50;6.25;;;;;21.10;77.65;101610.72;5104596;27;45451;-84
2022/07/27 09:00:53;;;;;;;;;5.25;4.50;;;;;21.14;77.72;101607.25;5122883;27;45180;-83
2022/07/27 09:03:21;;;;;;;;;9.25;6.25;;;;;21.19;76.79;101605.59;5121877;27;45343;-83
2022/07/27 09:05:52;;;;;;;;;7.25;5.25;;;;;21.21;75.96;101617.03;5124569;27;45264;-80
2022/07/27 09:08:24;;;;;;;;;8.00;6.00;;;;;21.26;75.36;101611.81;5125661;27;46077;-81
2022/07/27 09:10:51;;;;;;;;;6.25;5.00;;;;;21.23;75.25;101602.09;5122541;27;45444;-80
2022/07/27 09:13:26;;;;;;;;;5.75;4.00;;;;;21.27;75.38;101618.84;5125393;27;45308;-80
2022/07/27 09:15:53;;;;;;;;;7.25;5.75;;;;;21.28;74.53;101608.34;5122498;27;45475;-82
2022/07/27 09:18:23;;;;;;;;;8.75;6.00;;;;;21.32;73.88;101604.88;5121298;27;46591;-82
2022/07/27 09:21:10;;;;;;;;;6.25;5.50;;;;;21.38;74.87;101609.31;5120637;27;45781;-85
2022/07/27 09:23:37;;;;;;;;;6.00;6.00;;;;;21.41;73.00;101612.00;5120700;27;45218;-81
2022/07/27 09:26:15;;;;;;;;;5.50;4.00;;;;;21.44;72.46;101612.06;5119867;27;45521;-81
2022/07/27 09:28:41;;;;;;;;;6.00;5.00;;;;;21.47;71.27;101614.72;5120054;27;46298;-80
2022/07/27 09:31:12;;;;;;;;;4.00;4.00;;;;;21.53;71.31;101615.66;5119789;27;45329;-80
2022/07/27 09:33:50;;;;;;;;;4.50;4.50;;;;;21.48;69.96;101611.22;5120253;27;45449;-80
2022/07/27 09:36:18;;;;;;;;;5.75;4.00;;;;;21.47;70.25;101605.94;5125052;27;45422;-81
2022/07/27 09:39:02;;;;;;;;;4.50;4.25;;;;;21.47;71.93;101604.19;5127391;27;46325;-81
2022/07/27 09:41:52;;;;;;;;;7.25;5.00;;;;;21.54;71.61;101607.78;5123831;27;45256;-83
2022/07/27 09:44:32;;;;;;;;;5.25;4.00;;;;;21.58;70.89;101606.94;5121028;27;45336;-82
2022/07/27 09:46:58;;;;;;;;;3.00;3.00;;;;;21.62;69.80;101613.16;5121153;27;45439;-82
2022/07/27 09:49:32;;;;;;;;;5.00;4.00;;;;;21.65;68.72;101600.03;5127493;27;45473;-84
2022/07/27 09:52:00;;;;;;;;;5.25;2.75;;;;;21.71;68.93;101600.09;5135210;27;45322;-89
2022/07/27 09:54:27;;;;;;;;;4.75;4.75;;;;;21.77;67.76;101604.53;5133883;27;45546;-80
2022/07/27 09:57:00;;;;;;;;;4.25;4.25;;;;;21.80;67.87;101604.59;5122080;27;45342;-81
2022/07/27 09:59:27;;;;;;;;;3.75;3.75;;;;;21.86;66.20;101603.78;5125917;27;45632;-83
2022/07/27 10:01:54;;;;;;;;;3.75;3.75;;;;;21.89;66.67;101590.63;5104494;27;45621;-81
2022/07/27 10:04:20;;;;;;;;;4.25;4.25;;;;;21.93;65.12;101600.31;5127575;27;45236;-81
2022/07/27 10:06:46;;;;;;;;;5.75;4.75;;;;;21.98;66.42;101597.72;5139220;27;45336;-83
2022/07/27 10:09:12;;;;;;;;;4.00;4.00;;;;;22.03;63.84;101601.31;5132544;27;45394;-86
2022/07/27 10:11:38;;;;;;;;;4.00;3.00;;;;;22.06;64.11;101582.88;5126628;27;45309;-83
2022/07/27 10:14:04;;;;;;;;;16.75;13.75;;;;;22.15;64.97;101595.25;5119941;27;45353;-78
2022/07/27 10:16:31;;;;;;;;;13.25;10.00;;;;;22.15;63.84;101587.34;5128921;27;45357;-84
2022/07/27 10:19:18;;;;;;;;;10.75;7.50;;;;;22.21;62.30;101595.34;5136292;27;45446;-82
2022/07/27 10:21:46;;;;;;;;;3.00;3.00;;;;;22.26;61.61;101586.59;5123521;27;45403;-83
2022/07/27 10:24:31;;;;;;;;;9.00;8.00;;;;;22.28;61.54;101591.88;5143435;27;45332;-83
2022/07/27 10:26:57;;;;;;;;;10.00;9.25;;;;;22.33;61.91;101586.63;5141994;27;45308;-83
2022/07/27 10:29:23;;;;;;;;;3.00;3.00;;;;;22.40;59.16;101591.09;5145365;27;45354;-86
2022/07/27 10:31:52;;;;;;;;;3.75;3.00;;;;;22.40;57.56;101585.81;5149702;27;45442;-84
2022/07/27 10:34:33;;;;;;;;;6.00;5.25;;;;;22.41;58.26;101587.59;5147756;27;45330;-81
2022/07/27 10:37:07;;;;;;;;;4.00;2.00;;;;;22.40;57.43;101585.81;5142206;27;45309;-81
2022/07/27 10:39:36;;;;;;;;;3.00;2.00;;;;;22.47;56.17;101587.66;5145045;27;45282;-83
2022/07/27 10:42:23;;;;;;;;;3.00;2.25;;;;;22.52;57.11;101587.69;5140563;27;45254;-84
2022/07/27 10:44:56;;;;;;;;;3.75;3.00;;;;;22.60;56.87;101587.75;5142424;27;45310;-86
2022/07/27 10:47:32;;;;;;;;;2.00;2.00;;;;;22.61;56.48;101585.13;5140945;27;45509;-83
2022/07/27 10:50:15;;;;;;;;;4.25;3.00;;;;;22.66;56.70;101583.41;5139684;27;45408;-83
2022/07/27 10:52:44;;;;;;;;;4.00;2.00;;;;;22.69;55.45;101575.50;5140765;27;45606;-82
2022/07/27 10:55:34;;;;;;;;;4.00;3.00;;;;;22.74;54.70;101570.25;5142828;27;45306;-82
2022/07/27 10:58:02;;;;;;;;;2.50;2.50;;;;;22.79;55.37;101571.16;5132885;27;45369;-84
2022/07/27 11:00:52;;;;;;;;;6.25;4.25;;;;;22.84;56.37;101566.78;5152491;27;45987;-84
2022/07/27 11:03:22;;;;;;;;;4.00;2.75;;;;;22.92;53.68;101560.69;5143926;27;45342;-88
2022/07/27 11:05:58;;;;;;;;;3.50;2.00;;;;;22.95;53.01;101558.94;5143783;27;45304;-82
2022/07/27 11:08:26;;;;;;;;;2.00;2.00;;;;;23.00;54.18;101565.09;5143570;27;45564;-85
2022/07/27 11:10:52;;;;;;;;;3.00;3.00;;;;;23.02;53.60;101552.81;5140082;27;45341;-88
2022/07/27 11:13:20;;;;;;;;;4.50;3.00;;;;;23.14;53.59;101561.66;5140634;27;45313;-86
2022/07/27 11:15:53;;;;;;;;;2.50;2.00;;;;;23.19;54.15;101559.97;5143712;27;45396;-85
2022/07/27 11:18:24;;;;;;;;;2.00;2.00;;;;;23.25;54.77;101554.69;5123026;27;45328;-86
2022/07/27 11:20:49;;;;;;;;;6.00;3.25;;;;;23.24;53.88;101546.78;5141785;27;45898;-81
2022/07/27 11:23:20;;;;;;;;;3.75;2.75;;;;;23.25;54.38;101540.63;5148618;27;45277;-85
2022/07/27 11:25:58;;;;;;;;;2.50;2.00;;;;;23.32;54.23;101551.19;5129566;27;45299;-85
2022/07/27 11:28:35;;;;;;;;;4.50;3.25;;;;;23.42;53.16;101546.84;5141755;27;45591;-86
2022/07/27 11:31:01;;;;;;;;;2.75;2.75;;;;;23.47;51.37;101542.47;5139553;27;46292;-88